createdAt,value
2018-02-21T00:02:22.764Z,98.18
2018-02-21T00:04:49.131Z,92.12
2018-02-21T00:07:15.530Z,86.53
2018-02-21T00:09:41.832Z,84.43
2018-02-21T00:12:08.023Z,84.00
2018-02-21T00:14:34.488Z,88.12
2018-02-21T00:17:00.793Z,85.70
2018-02-21T00:19:26.986Z,89.82
2018-02-21T00:21:53.338Z,93.62
2018-02-21T00:24:19.687Z,96.18
2018-02-21T00:26:46.148Z,96.43
2018-02-21T00:29:12.458Z,101.20
2018-02-21T00:31:38.810Z,98.97
2018-02-21T00:34:05.236Z,105.22
2018-02-21T00:36:31.765Z,104.90
2018-02-21T00:38:57.971Z,98.37
2018-02-21T00:41:24.457Z,99.00
2018-02-21T00:43:50.887Z,100.78
2018-02-21T00:46:17.394Z,98.43
2018-02-21T00:48:43.728Z,100.80
2018-02-21T00:51:10.134Z,94.65
2018-02-21T00:53:36.358Z,103.87
2018-02-21T00:56:02.774Z,102.12
2018-02-21T00:58:29.056Z,91.65
2018-02-21T01:00:55.386Z,97.95
2018-02-21T01:03:21.739Z,101.60
2018-02-21T01:05:48.003Z,89.32
2018-02-21T01:08:14.405Z,78.07
2018-02-21T01:10:40.725Z,76.90
2018-02-21T01:13:06.986Z,70.95
2018-02-21T01:15:33.320Z,69.37
2018-02-21T01:17:59.703Z,58.45
2018-02-21T01:20:25.991Z,61.63
2018-02-21T01:22:52.240Z,57.38
2018-02-21T01:25:18.634Z,53.03
2018-02-21T01:27:44.956Z,57.95
2018-02-21T01:30:11.323Z,56.55
2018-02-21T01:32:37.716Z,51.90
2018-02-21T01:35:04.203Z,55.63
2018-02-21T01:37:30.513Z,53.65
2018-02-21T01:39:56.786Z,59.55
2018-02-21T01:42:23.113Z,57.72
2018-02-21T01:44:49.508Z,59.42
2018-02-21T01:47:15.842Z,59.20
2018-02-21T01:49:42.173Z,62.67
2018-02-21T01:52:08.567Z,55.88
2018-02-21T01:54:34.953Z,55.20
2018-02-21T01:57:01.199Z,58.65
2018-02-21T01:59:27.443Z,60.35
2018-02-21T02:01:53.889Z,56.33
2018-02-21T02:04:20.244Z,58.72
2018-02-21T02:06:46.494Z,59.40
2018-02-21T02:09:12.787Z,53.20
2018-02-21T02:11:39.124Z,54.60
2018-02-21T02:14:05.591Z,60.67
2018-02-21T02:16:32.127Z,57.80
2018-02-21T02:18:58.477Z,60.20
2018-02-21T02:21:24.858Z,61.45
2018-02-21T02:23:51.222Z,56.53
2018-02-21T02:26:17.634Z,58.90
2018-02-21T02:28:43.997Z,63.53
2018-02-21T02:31:10.455Z,61.35
2018-02-21T02:33:36.705Z,55.67
2018-02-21T02:36:03.048Z,62.17
2018-02-21T02:38:35.358Z,55.83
2018-02-21T02:41:01.608Z,59.63
2018-02-21T02:43:27.852Z,55.90
2018-02-21T02:45:54.239Z,55.03
2018-02-21T02:48:20.550Z,54.40
2018-02-21T02:50:46.958Z,58.65
2018-02-21T02:53:13.261Z,67.70
2018-02-21T02:55:39.554Z,58.45
2018-02-21T02:58:05.943Z,52.08
2018-02-21T03:00:32.437Z,60.78
2018-02-21T03:02:58.764Z,59.35
2018-02-21T03:05:25.054Z,56.83
2018-02-21T03:07:51.376Z,57.00
2018-02-21T03:10:17.826Z,57.92
2018-02-21T03:12:44.250Z,54.30
2018-02-21T03:15:10.558Z,61.50
2018-02-21T03:17:36.901Z,54.42
2018-02-21T03:20:03.198Z,63.95
2018-02-21T03:22:29.481Z,62.55
2018-02-21T03:24:55.822Z,57.10
2018-02-21T03:27:22.242Z,54.35
2018-02-21T03:29:48.549Z,59.10
2018-02-21T03:32:20.765Z,59.80
2018-02-21T03:34:47.106Z,57.20
2018-02-21T03:37:13.398Z,60.38
2018-02-21T03:39:39.624Z,62.85
2018-02-21T03:42:05.920Z,58.38
2018-02-21T03:44:32.169Z,60.72
2018-02-21T03:46:58.392Z,57.83
2018-02-21T03:49:24.577Z,60.08
2018-02-21T03:51:50.836Z,57.85
2018-02-21T03:54:17.369Z,59.35
2018-02-21T03:56:43.906Z,56.28
2018-02-21T03:59:10.196Z,60.60
2018-02-21T04:01:36.648Z,58.90
2018-02-21T04:04:02.972Z,57.75
2018-02-21T04:06:29.408Z,62.80
2018-02-21T04:08:55.664Z,53.05
2018-02-21T04:11:22.405Z,53.25
2018-02-21T04:13:48.749Z,60.15
2018-02-21T04:16:15.443Z,59.45
2018-02-21T04:18:41.768Z,69.32
2018-02-21T04:21:08.024Z,58.30
2018-02-21T04:23:34.538Z,59.10
2018-02-21T04:26:00.844Z,59.63
2018-02-21T04:28:27.158Z,61.92
2018-02-21T04:30:53.462Z,62.72
2018-02-21T04:33:19.772Z,61.00
2018-02-21T04:35:46.290Z,61.80
2018-02-21T04:38:12.537Z,57.35
2018-02-21T04:40:38.964Z,66.25
2018-02-21T04:43:05.328Z,66.07
2018-02-21T04:45:31.758Z,64.70
2018-02-21T04:47:57.956Z,63.13
2018-02-21T04:50:24.251Z,69.10
2018-02-21T04:52:50.507Z,63.97
2018-02-21T04:55:22.924Z,66.93
2018-02-21T04:58:04.210Z,60.55
2018-02-21T05:00:30.641Z,64.47
2018-02-21T05:02:56.931Z,65.40
2018-02-21T05:05:23.252Z,66.40
2018-02-21T05:07:49.575Z,64.97
2018-02-21T05:10:16.017Z,76.43
2018-02-21T05:12:42.345Z,75.47
2018-02-21T05:15:08.619Z,66.03
2018-02-21T05:17:34.917Z,67.50
2018-02-21T05:20:01.405Z,70.37
2018-02-21T05:22:27.679Z,72.72
2018-02-21T05:24:53.980Z,68.07
2018-02-21T05:27:20.280Z,65.40
2018-02-21T05:29:46.633Z,66.35
2018-02-21T05:32:12.976Z,65.93
2018-02-21T05:34:39.258Z,73.07
2018-02-21T05:37:05.449Z,72.30
2018-02-21T05:39:31.843Z,71.95
2018-02-21T05:41:58.049Z,68.80
2018-02-21T05:44:24.461Z,76.20
2018-02-21T05:46:50.837Z,72.50
2018-02-21T05:49:17.264Z,71.45
2018-02-21T05:51:43.594Z,71.15
2018-02-21T05:54:09.861Z,75.07
2018-02-21T05:56:36.276Z,79.03
2018-02-21T05:59:02.538Z,78.93
2018-02-21T06:01:28.938Z,82.85
2018-02-21T06:03:55.229Z,70.75
2018-02-21T06:06:21.703Z,77.47
2018-02-21T06:08:48.012Z,72.95
2018-02-21T06:11:14.526Z,84.97
2018-02-21T06:13:40.811Z,74.00
2018-02-21T06:16:07.148Z,74.87
2018-02-21T06:18:33.402Z,70.53
2018-02-21T06:20:59.707Z,71.72
2018-02-21T06:23:25.959Z,76.00
2018-02-21T06:25:52.194Z,73.20
2018-02-21T06:28:18.421Z,75.95
2018-02-21T06:30:44.599Z,73.25
2018-02-21T06:33:10.809Z,74.70
2018-02-21T06:35:37.152Z,71.95
2018-02-21T06:38:03.683Z,76.43
2018-02-21T06:40:29.913Z,77.47
2018-02-21T06:42:56.192Z,76.87
2018-02-21T06:45:22.476Z,79.18
2018-02-21T06:47:48.807Z,78.57
2018-02-21T06:50:15.058Z,78.57
2018-02-21T06:52:41.418Z,74.30
2018-02-21T06:55:07.710Z,74.72
2018-02-21T06:57:34.148Z,79.85
2018-02-21T07:00:00.482Z,73.87
2018-02-21T07:02:37.737Z,73.50
2018-02-21T07:05:05.125Z,77.50
2018-02-21T07:07:31.471Z,71.10
2018-02-21T07:09:57.709Z,77.12
2018-02-21T07:12:24.048Z,77.53
2018-02-21T07:14:50.386Z,80.80
2018-02-21T07:17:16.703Z,72.65
2018-02-21T07:19:43.004Z,77.12
2018-02-21T07:22:09.336Z,79.60
2018-02-21T07:24:35.684Z,78.50
2018-02-21T07:27:01.937Z,69.45
2018-02-21T07:29:28.143Z,75.18
2018-02-21T07:31:54.421Z,79.40
2018-02-21T07:34:20.689Z,76.28
2018-02-21T07:36:47.174Z,72.78
2018-02-21T07:39:13.474Z,78.12
2018-02-21T07:41:39.808Z,74.68
2018-02-21T07:44:06.163Z,70.15
2018-02-21T07:46:32.578Z,77.53
2018-02-21T07:48:58.782Z,81.47
2018-02-21T07:51:25.370Z,78.47
2018-02-21T07:53:51.588Z,74.75
2018-02-21T07:56:17.889Z,77.78
2018-02-21T07:58:44.132Z,70.22
2018-02-21T08:01:10.522Z,79.53
2018-02-21T08:03:36.831Z,73.03
2018-02-21T08:06:03.193Z,75.95
2018-02-21T08:08:29.418Z,75.53
2018-02-21T08:10:55.705Z,76.43
2018-02-21T08:13:21.982Z,67.07
2018-02-21T08:15:48.270Z,74.43
2018-02-21T08:18:14.586Z,69.60
2018-02-21T08:20:40.879Z,78.60
2018-02-21T08:23:07.146Z,71.40
2018-02-21T08:25:33.607Z,74.62
2018-02-21T08:27:59.861Z,72.12
2018-02-21T08:30:26.253Z,70.18
2018-02-21T08:32:52.466Z,70.90
2018-02-21T08:35:18.967Z,75.75
2018-02-21T08:37:45.295Z,71.70
2018-02-21T08:40:11.660Z,66.50
2018-02-21T08:42:37.891Z,67.37
2018-02-21T08:45:04.357Z,67.35
2018-02-21T08:47:30.720Z,74.62
2018-02-21T08:49:57.007Z,71.65
2018-02-21T08:52:23.371Z,66.28
2018-02-21T08:54:49.823Z,66.40
2018-02-21T08:57:16.123Z,73.62
2018-02-21T08:59:42.543Z,63.92
2018-02-21T09:02:08.902Z,62.50
2018-02-21T09:04:35.320Z,67.85
2018-02-21T09:07:01.622Z,70.47
2018-02-21T09:09:27.924Z,65.50
2018-02-21T09:11:54.186Z,70.00
2018-02-21T09:14:20.518Z,67.50
2018-02-21T09:16:46.911Z,65.55
2018-02-21T09:19:13.312Z,63.63
2018-02-21T09:21:39.809Z,65.87
2018-02-21T09:24:06.058Z,61.65
2018-02-21T09:26:32.711Z,72.25
2018-02-21T09:28:58.990Z,64.65
2018-02-21T09:31:25.523Z,64.10
2018-02-21T09:33:51.856Z,67.57
2018-02-21T09:36:18.171Z,66.37
2018-02-21T09:38:44.632Z,64.87
2018-02-21T09:41:10.924Z,64.15
2018-02-21T09:43:37.413Z,72.28
2018-02-21T09:46:03.887Z,63.17
2018-02-21T09:48:30.254Z,57.93
2018-02-21T09:50:56.619Z,58.43
2018-02-21T09:53:23.002Z,61.58
2018-02-21T09:55:49.390Z,62.50
2018-02-21T09:58:15.819Z,57.30
2018-02-21T10:00:42.142Z,60.73
2018-02-21T10:03:08.458Z,57.47
2018-02-21T10:05:34.815Z,59.80
2018-02-21T10:08:01.018Z,64.23
2018-02-21T10:10:27.359Z,72.47
2018-02-21T10:12:53.701Z,60.97
2018-02-21T10:15:19.970Z,57.40
2018-02-21T10:17:46.505Z,61.37
2018-02-21T10:20:12.842Z,62.80
2018-02-21T10:22:39.142Z,54.77
2018-02-21T10:25:05.527Z,61.40
2018-02-21T10:27:31.889Z,60.17
2018-02-21T10:29:58.131Z,61.60
2018-02-21T10:32:24.483Z,52.77
2018-02-21T10:34:50.833Z,53.83
2018-02-21T10:37:17.211Z,53.13
2018-02-21T10:39:43.491Z,53.00
2018-02-21T10:42:09.850Z,52.37
2018-02-21T10:44:36.164Z,52.27
2018-02-21T10:47:02.593Z,52.57
2018-02-21T10:49:28.910Z,53.03
2018-02-21T10:51:55.227Z,51.50
2018-02-21T10:54:21.544Z,52.27
2018-02-21T10:56:47.791Z,55.00
2018-02-21T10:59:14.173Z,51.70
2018-02-21T11:01:40.699Z,51.73
2018-02-21T11:04:07.049Z,53.53
2018-02-21T11:06:33.526Z,52.00
2018-02-21T11:08:59.864Z,50.23
2018-02-21T11:11:26.176Z,47.93
2018-02-21T11:13:52.549Z,50.43
2018-02-21T11:16:19.035Z,50.07
2018-02-21T11:18:45.402Z,52.13
2018-02-21T11:21:11.787Z,51.80
2018-02-21T11:23:38.076Z,50.80
2018-02-21T11:26:04.478Z,52.70
2018-02-21T11:28:30.748Z,47.83
2018-02-21T11:30:57.046Z,53.53
2018-02-21T11:33:23.280Z,48.17
2018-02-21T11:35:49.598Z,58.93
2018-02-21T11:38:16.054Z,49.03
2018-02-21T11:40:42.374Z,49.33
2018-02-21T11:43:08.693Z,50.83
2018-02-21T11:45:35.100Z,51.63
2018-02-21T11:48:01.353Z,50.77
2018-02-21T11:50:27.612Z,53.90
2018-02-21T11:52:54.031Z,49.87
2018-02-21T11:55:20.362Z,59.60
2018-02-21T11:57:46.814Z,47.47
2018-02-21T12:00:13.075Z,55.97
2018-02-21T12:02:39.389Z,51.50
2018-02-21T12:05:05.577Z,72.07
2018-02-21T12:07:31.829Z,47.57
2018-02-21T12:09:58.018Z,49.77
2018-02-21T12:12:24.289Z,43.97
2018-02-21T12:14:50.530Z,45.13
2018-02-21T12:17:16.893Z,48.13
2018-02-21T12:19:43.257Z,43.03
2018-02-21T12:22:09.594Z,44.10
2018-02-21T12:24:36.013Z,41.43
2018-02-21T12:27:02.432Z,46.37
2018-02-21T12:29:28.723Z,42.03
2018-02-21T12:31:58.223Z,47.60
2018-02-21T12:34:24.533Z,42.50
2018-02-21T12:36:50.871Z,42.20
2018-02-21T12:39:23.203Z,44.63
2018-02-21T12:41:49.644Z,50.07
2018-02-21T12:44:16.049Z,48.27
2018-02-21T12:46:42.580Z,50.00
2018-02-21T12:49:08.825Z,53.40
2018-02-21T12:51:35.475Z,50.80
2018-02-21T12:54:01.804Z,60.83
2018-02-21T12:56:28.059Z,58.13
2018-02-21T12:58:54.431Z,61.07
2018-02-21T13:01:20.889Z,54.63
2018-02-21T13:03:47.330Z,57.33
2018-02-21T13:06:13.654Z,54.23
2018-02-21T13:08:39.957Z,62.80
2018-02-21T13:11:06.599Z,55.63
2018-02-21T13:13:32.966Z,60.60
2018-02-21T13:15:59.200Z,61.53
2018-02-21T13:18:25.518Z,59.83
2018-02-21T13:20:51.748Z,58.57
2018-02-21T13:23:17.946Z,59.77
2018-02-21T13:25:44.121Z,62.67
2018-02-21T13:28:10.352Z,57.13
2018-02-21T13:30:36.555Z,58.60
2018-02-21T13:33:02.855Z,59.47
2018-02-21T13:35:29.162Z,55.90
2018-02-21T13:37:55.389Z,60.30
2018-02-21T13:40:21.771Z,57.97
2018-02-21T13:42:47.997Z,57.83
2018-02-21T13:45:14.246Z,59.73
2018-02-21T13:47:40.505Z,57.07
2018-02-21T13:50:06.787Z,63.60
2018-02-21T13:52:33.566Z,61.03
2018-02-21T13:54:59.914Z,60.37
2018-02-21T13:57:26.119Z,60.37
2018-02-21T13:59:52.252Z,58.40
2018-02-21T14:02:18.544Z,59.53
2018-02-21T14:04:44.842Z,58.83
2018-02-21T14:07:11.082Z,61.90
2018-02-21T14:09:37.400Z,62.40
2018-02-21T14:12:03.625Z,58.97
2018-02-21T14:14:31.427Z,57.07
2018-02-21T14:16:57.779Z,56.73
2018-02-21T14:19:24.049Z,59.93
2018-02-21T14:21:50.362Z,50.87
2018-02-21T14:24:16.786Z,57.70
2018-02-21T14:26:43.109Z,49.40
2018-02-21T14:29:09.452Z,48.57
2018-02-21T14:31:35.949Z,50.87
2018-02-21T14:34:02.218Z,46.00
2018-02-21T14:36:28.590Z,55.87
2018-02-21T14:38:54.971Z,47.80
2018-02-21T14:41:21.505Z,49.70
2018-02-21T14:43:47.937Z,39.33
2018-02-21T14:46:14.248Z,42.27
2018-02-21T14:48:40.640Z,40.60
2018-02-21T14:51:07.200Z,37.50
2018-02-21T14:53:33.455Z,39.10
2018-02-21T14:55:59.715Z,38.10
2018-02-21T14:58:26.022Z,40.80
2018-02-21T15:00:52.432Z,39.77
2018-02-21T15:03:18.725Z,37.03
2018-02-21T15:05:45.145Z,39.43
2018-02-21T15:08:11.530Z,41.70
2018-02-21T15:10:37.893Z,42.90
2018-02-21T15:13:04.240Z,40.50
2018-02-21T15:15:30.541Z,42.50
2018-02-21T15:17:56.812Z,40.23
2018-02-21T15:20:23.081Z,36.70
2018-02-21T15:22:49.385Z,37.13
2018-02-21T15:25:15.775Z,35.53
2018-02-21T15:27:42.085Z,35.58
2018-02-21T15:30:08.938Z,40.50
2018-02-21T15:32:35.293Z,34.45
2018-02-21T15:35:01.577Z,35.97
2018-02-21T15:37:27.972Z,38.78
2018-02-21T15:39:54.221Z,35.78
2018-02-21T15:42:20.599Z,32.20
2018-02-21T15:44:47.083Z,34.83
2018-02-21T15:47:13.550Z,40.30
2018-02-21T15:49:39.904Z,38.13
2018-02-21T15:52:06.213Z,40.60
2018-02-21T15:54:32.491Z,35.63
2018-02-21T15:56:58.797Z,42.70
2018-02-21T15:59:25.094Z,38.38
2018-02-21T16:01:51.359Z,39.60
2018-02-21T16:04:17.782Z,39.85
2018-02-21T16:06:44.403Z,41.55
2018-02-21T16:09:10.722Z,39.05
2018-02-21T16:11:37.038Z,42.45
2018-02-21T16:14:03.276Z,46.17
2018-02-21T16:16:29.895Z,40.95
2018-02-21T16:18:56.168Z,44.25
2018-02-21T16:21:22.472Z,44.78
2018-02-21T16:23:48.762Z,46.78
2018-02-21T16:26:15.208Z,40.05
2018-02-21T16:28:41.509Z,45.58
2018-02-21T16:31:07.800Z,41.63
2018-02-21T16:33:34.235Z,43.20
2018-02-21T16:36:00.606Z,45.90
2018-02-21T16:38:26.742Z,49.22
2018-02-21T16:40:52.991Z,45.45
2018-02-21T16:43:19.424Z,47.67
2018-02-21T16:45:45.765Z,47.75
2018-02-21T16:48:12.239Z,46.78
2018-02-21T16:50:38.530Z,51.05
2018-02-21T16:53:04.809Z,52.88
2018-02-21T16:55:31.031Z,53.60
2018-02-21T16:57:57.284Z,46.88
2018-02-21T17:00:23.493Z,48.72
2018-02-21T17:02:53.553Z,50.60
2018-02-21T17:05:19.833Z,45.12
2018-02-21T17:07:46.147Z,47.78
2018-02-21T17:10:12.414Z,43.87
2018-02-21T17:12:38.769Z,46.42
2018-02-21T17:15:05.015Z,48.38
2018-02-21T17:17:31.828Z,48.53
2018-02-21T17:19:58.145Z,49.15
2018-02-21T17:22:24.423Z,48.00
2018-02-21T17:24:50.758Z,49.08
2018-02-21T17:27:16.997Z,51.25
2018-02-21T17:29:43.290Z,45.25
2018-02-21T17:32:09.534Z,47.83
2018-02-21T17:34:35.828Z,52.92
2018-02-21T17:37:02.042Z,48.55
2018-02-21T17:39:28.362Z,48.78
2018-02-21T17:41:54.756Z,44.38
2018-02-21T17:44:21.041Z,51.05
2018-02-21T17:46:47.442Z,47.45
2018-02-21T17:49:13.686Z,53.78
2018-02-21T17:51:40.137Z,49.45
2018-02-21T17:54:06.541Z,50.40
2018-02-21T17:56:33.006Z,54.10
2018-02-21T17:58:59.322Z,53.50
2018-02-21T18:01:25.749Z,53.22
2018-02-21T18:03:52.023Z,50.60
2018-02-21T18:06:18.312Z,55.83
2018-02-21T18:08:44.734Z,53.08
2018-02-21T18:11:11.173Z,47.92
2018-02-21T18:13:37.418Z,50.17
2018-02-21T18:16:03.800Z,55.38
2018-02-21T18:18:30.090Z,54.38
2018-02-21T18:20:56.453Z,53.10
2018-02-21T18:23:22.841Z,56.03
2018-02-21T18:25:49.258Z,52.62
2018-02-21T18:28:15.715Z,55.88
2018-02-21T18:30:42.031Z,59.42
2018-02-21T18:33:08.366Z,59.63
2018-02-21T18:35:34.694Z,50.35
2018-02-21T18:38:01.003Z,59.47
2018-02-21T18:40:27.256Z,52.55
2018-02-21T18:42:53.553Z,62.78
2018-02-21T18:45:19.997Z,85.95
2018-02-21T18:47:46.427Z,54.33
2018-02-21T18:50:12.689Z,50.60
2018-02-21T18:52:39.000Z,54.88
2018-02-21T18:55:05.348Z,51.10
2018-02-21T18:57:31.574Z,56.47
2018-02-21T18:59:57.800Z,48.87
2018-02-21T19:02:24.133Z,53.90
2018-02-21T19:04:50.485Z,55.12
2018-02-21T19:07:16.892Z,52.08
2018-02-21T19:09:43.171Z,52.92
2018-02-21T19:12:09.549Z,56.17
2018-02-21T19:14:35.905Z,53.75
2018-02-21T19:17:02.221Z,52.25
2018-02-21T19:19:28.559Z,51.25
2018-02-21T19:21:54.809Z,52.53
2018-02-21T19:24:21.098Z,60.38
2018-02-21T19:26:47.607Z,50.12
2018-02-21T19:29:13.985Z,58.50
2018-02-21T19:31:40.333Z,55.88
2018-02-21T19:34:06.718Z,53.20
2018-02-21T19:36:33.081Z,53.33
2018-02-21T19:38:59.511Z,54.00
2018-02-21T19:41:25.902Z,56.35
2018-02-21T19:43:52.172Z,48.63
2018-02-21T19:46:18.483Z,55.08
2018-02-21T19:48:44.824Z,59.70
2018-02-21T19:51:11.278Z,55.50
2018-02-21T19:53:37.636Z,52.85
2018-02-21T19:56:04.090Z,54.05
2018-02-21T19:58:30.443Z,50.22
2018-02-21T20:00:56.770Z,59.78
2018-02-21T20:03:23.156Z,56.97
2018-02-21T20:05:49.572Z,51.35
2018-02-21T20:08:15.939Z,62.33
2018-02-21T20:10:42.234Z,48.25
2018-02-21T20:13:08.511Z,51.20
2018-02-21T20:15:34.854Z,55.05
2018-02-21T20:18:01.155Z,53.15
2018-02-21T20:20:27.384Z,54.03
2018-02-21T20:22:53.623Z,47.60
2018-02-21T20:25:20.032Z,50.35
2018-02-21T20:27:46.524Z,58.25
2018-02-21T20:30:12.992Z,55.53
2018-02-21T20:32:39.393Z,52.38
2018-02-21T20:35:05.758Z,54.28
2018-02-21T20:37:32.057Z,48.00
2018-02-21T20:39:58.453Z,48.00
2018-02-21T20:42:24.717Z,46.65
2018-02-21T20:44:51.223Z,49.22
2018-02-21T20:47:17.846Z,52.95
2018-02-21T20:49:44.128Z,48.25
2018-02-21T20:52:10.517Z,47.70
2018-02-21T20:54:36.855Z,51.10
2018-02-21T20:57:03.146Z,53.67
2018-02-21T20:59:29.403Z,47.05
2018-02-21T21:01:55.810Z,52.78
2018-02-21T21:04:22.054Z,40.25
2018-02-21T21:06:48.945Z,48.17
2018-02-21T21:09:15.223Z,46.15
2018-02-21T21:11:45.081Z,40.15
2018-02-21T21:14:12.107Z,48.67
2018-02-21T21:16:38.488Z,44.67
2018-02-21T21:19:23.916Z,43.40
2018-02-21T21:21:50.229Z,40.97
2018-02-21T21:24:16.513Z,39.78
2018-02-21T21:26:43.058Z,46.17
2018-02-21T21:29:09.325Z,41.33
2018-02-21T21:31:35.861Z,40.25
2018-02-21T21:34:02.053Z,41.08
2018-02-21T21:36:28.383Z,40.10
2018-02-21T21:38:54.641Z,36.78
2018-02-21T21:41:21.031Z,35.15
2018-02-21T21:43:47.426Z,33.25
2018-02-21T21:46:13.810Z,34.60
2018-02-21T21:48:40.056Z,38.65
2018-02-21T21:51:06.478Z,38.13
2018-02-21T21:53:32.868Z,34.13
2018-02-21T21:55:59.201Z,37.28
2018-02-21T21:58:25.340Z,33.45
2018-02-21T22:00:51.645Z,30.30
2018-02-21T22:03:17.936Z,36.03
2018-02-21T22:05:44.207Z,43.22
2018-02-21T22:08:10.467Z,36.75
2018-02-21T22:10:37.092Z,36.03
2018-02-21T22:13:03.301Z,35.17
2018-02-21T22:15:29.516Z,35.13
2018-02-21T22:17:55.726Z,35.33
2018-02-21T22:20:22.011Z,39.47
2018-02-21T22:22:48.328Z,39.28
2018-02-21T22:25:14.748Z,36.97
2018-02-21T22:27:40.968Z,39.05
2018-02-21T22:30:07.477Z,37.85
2018-02-21T22:32:33.787Z,36.85
2018-02-21T22:35:00.135Z,36.83
2018-02-21T22:37:26.378Z,32.75
2018-02-21T22:39:52.714Z,35.58
2018-02-21T22:42:19.048Z,33.97
2018-02-21T22:44:45.446Z,32.88
2018-02-21T22:47:11.729Z,41.28
2018-02-21T22:49:37.943Z,38.97
2018-02-21T22:52:04.394Z,36.22
2018-02-21T22:54:30.700Z,35.80
2018-02-21T22:56:56.919Z,36.20
2018-02-21T22:59:23.205Z,30.15
2018-02-21T23:01:49.600Z,32.42
2018-02-21T23:04:15.878Z,31.95
2018-02-21T23:06:42.230Z,33.97
2018-02-21T23:09:08.544Z,30.58
2018-02-21T23:11:34.911Z,31.85
2018-02-21T23:14:01.304Z,36.80
2018-02-21T23:16:27.699Z,28.87
2018-02-21T23:18:54.027Z,37.80
2018-02-21T23:21:20.377Z,31.00
2018-02-21T23:23:46.835Z,30.02
2018-02-21T23:26:13.257Z,29.67
2018-02-21T23:28:39.577Z,28.92
2018-02-21T23:31:05.959Z,30.52
2018-02-21T23:33:32.263Z,31.92
2018-02-21T23:35:58.544Z,31.33
2018-02-21T23:38:24.904Z,31.15
2018-02-21T23:40:51.301Z,30.88
2018-02-21T23:43:17.649Z,31.35
2018-02-21T23:45:43.819Z,29.90
2018-02-21T23:48:10.217Z,29.15
2018-02-21T23:50:36.522Z,27.35
2018-02-21T23:53:02.851Z,30.58
2018-02-21T23:55:29.290Z,30.52
2018-02-21T23:57:55.558Z,26.75
